sensor_id;sensor_type;location;lat;lon;timestamp;P1;durP1;ratioP1;P2;durP2;ratioP2
28130;SDS011;15418;42.634;23.374;2022-10-16T00:02:07;29.95;;;14.40;;
28130;SDS011;15418;42.634;23.374;2022-10-16T00:04:33;23.52;;;13.15;;
28130;SDS011;15418;42.634;23.374;2022-10-16T00:06:58;23.08;;;14.18;;
28130;SDS011;15418;42.634;23.374;2022-10-16T00:09:23;26.52;;;14.48;;
28130;SDS011;15418;42.634;23.374;2022-10-16T00:11:49;22.33;;;14.05;;
28130;SDS011;15418;42.634;23.374;2022-10-16T00:14:15;22.23;;;13.75;;
28130;SDS011;15418;42.634;23.374;2022-10-16T00:16:41;21.25;;;13.27;;
28130;SDS011;15418;42.634;23.374;2022-10-16T00:19:07;24.38;;;14.02;;
28130;SDS011;15418;42.634;23.374;2022-10-16T00:21:32;20.75;;;13.15;;
28130;SDS011;15418;42.634;23.374;2022-10-16T00:24:00;29.40;;;14.52;;
28130;SDS011;15418;42.634;23.374;2022-10-16T00:26:29;19.15;;;13.75;;
28130;SDS011;15418;42.634;23.374;2022-10-16T00:28:57;23.40;;;14.48;;
28130;SDS011;15418;42.634;23.374;2022-10-16T00:31:22;26.88;;;13.60;;
28130;SDS011;15418;42.634;23.374;2022-10-16T00:33:49;24.40;;;13.70;;
28130;SDS011;15418;42.634;23.374;2022-10-16T00:36:17;18.75;;;13.15;;
28130;SDS011;15418;42.634;23.374;2022-10-16T00:38:44;27.63;;;15.10;;
28130;SDS011;15418;42.634;23.374;2022-10-16T00:41:11;26.00;;;14.85;;
28130;SDS011;15418;42.634;23.374;2022-10-16T00:51:23;24.42;;;15.45;;
28130;SDS011;15418;42.634;23.374;2022-10-16T00:53:53;27.20;;;15.95;;
28130;SDS011;15418;42.634;23.374;2022-10-16T00:56:20;26.55;;;14.82;;
28130;SDS011;15418;42.634;23.374;2022-10-16T00:58:45;26.67;;;16.10;;
28130;SDS011;15418;42.634;23.374;2022-10-16T01:01:11;22.70;;;15.10;;
28130;SDS011;15418;42.634;23.374;2022-10-16T01:03:37;24.25;;;15.45;;
28130;SDS011;15418;42.634;23.374;2022-10-16T01:06:16;23.90;;;15.40;;
28130;SDS011;15418;42.634;23.374;2022-10-16T01:09:03;25.75;;;15.65;;
28130;SDS011;15418;42.634;23.374;2022-10-16T01:14:23;22.27;;;12.95;;
28130;SDS011;15418;42.634;23.374;2022-10-16T01:17:16;25.83;;;13.52;;
28130;SDS011;15418;42.634;23.374;2022-10-16T01:20:24;20.45;;;12.60;;
28130;SDS011;15418;42.634;23.374;2022-10-16T01:26:20;15.35;;;8.88;;
28130;SDS011;15418;42.634;23.374;2022-10-16T01:29:41;15.55;;;9.25;;
28130;SDS011;15418;42.634;23.374;2022-10-16T01:31:59;15.95;;;9.07;;
28130;SDS011;15418;42.634;23.374;2022-10-16T01:37:02;11.38;;;6.60;;
28130;SDS011;15418;42.634;23.374;2022-10-16T01:39:35;13.45;;;7.18;;
28130;SDS011;15418;42.634;23.374;2022-10-16T01:44:34;15.85;;;6.45;;
28130;SDS011;15418;42.634;23.374;2022-10-16T01:47:02;17.40;;;7.72;;
28130;SDS011;15418;42.634;23.374;2022-10-16T01:49:33;11.35;;;6.90;;
28130;SDS011;15418;42.634;23.374;2022-10-16T01:52:02;14.10;;;7.40;;
28130;SDS011;15418;42.634;23.374;2022-10-16T01:54:36;10.05;;;5.97;;
28130;SDS011;15418;42.634;23.374;2022-10-16T01:57:05;15.23;;;7.10;;
28130;SDS011;15418;42.634;23.374;2022-10-16T01:59:33;10.32;;;6.72;;
28130;SDS011;15418;42.634;23.374;2022-10-16T02:02:04;12.80;;;6.90;;
28130;SDS011;15418;42.634;23.374;2022-10-16T02:04:34;10.77;;;6.95;;
28130;SDS011;15418;42.634;23.374;2022-10-16T02:07:04;12.20;;;6.97;;
28130;SDS011;15418;42.634;23.374;2022-10-16T02:09:32;14.55;;;7.15;;
28130;SDS011;15418;42.634;23.374;2022-10-16T02:11:58;12.75;;;6.53;;
28130;SDS011;15418;42.634;23.374;2022-10-16T02:14:29;10.93;;;6.25;;
28130;SDS011;15418;42.634;23.374;2022-10-16T02:16:55;12.30;;;6.53;;
28130;SDS011;15418;42.634;23.374;2022-10-16T02:19:21;15.35;;;7.07;;
28130;SDS011;15418;42.634;23.374;2022-10-16T02:21:58;11.95;;;6.85;;
28130;SDS011;15418;42.634;23.374;2022-10-16T02:29:35;9.25;;;6.18;;
28130;SDS011;15418;42.634;23.374;2022-10-16T02:32:09;11.13;;;6.93;;
28130;SDS011;15418;42.634;23.374;2022-10-16T02:34:39;9.45;;;6.32;;
28130;SDS011;15418;42.634;23.374;2022-10-16T02:37:05;10.73;;;6.47;;
28130;SDS011;15418;42.634;23.374;2022-10-16T02:39:31;8.68;;;6.13;;
28130;SDS011;15418;42.634;23.374;2022-10-16T02:41:58;11.13;;;6.55;;
28130;SDS011;15418;42.634;23.374;2022-10-16T02:44:24;9.93;;;6.70;;
28130;SDS011;15418;42.634;23.374;2022-10-16T02:46:49;13.32;;;7.25;;
28130;SDS011;15418;42.634;23.374;2022-10-16T02:49:15;10.45;;;6.78;;
28130;SDS011;15418;42.634;23.374;2022-10-16T02:51:40;16.02;;;7.97;;
28130;SDS011;15418;42.634;23.374;2022-10-16T02:54:06;10.57;;;7.68;;
28130;SDS011;15418;42.634;23.374;2022-10-16T02:56:31;10.90;;;7.03;;
28130;SDS011;15418;42.634;23.374;2022-10-16T02:58:57;12.57;;;7.70;;
28130;SDS011;15418;42.634;23.374;2022-10-16T03:01:22;12.43;;;7.78;;
28130;SDS011;15418;42.634;23.374;2022-10-16T03:03:48;12.98;;;8.55;;
28130;SDS011;15418;42.634;23.374;2022-10-16T03:06:14;11.38;;;8.13;;
28130;SDS011;15418;42.634;23.374;2022-10-16T03:08:40;16.50;;;8.60;;
28130;SDS011;15418;42.634;23.374;2022-10-16T03:11:05;13.95;;;8.20;;
28130;SDS011;15418;42.634;23.374;2022-10-16T03:13:30;13.82;;;7.75;;
28130;SDS011;15418;42.634;23.374;2022-10-16T03:15:56;18.58;;;8.57;;
28130;SDS011;15418;42.634;23.374;2022-10-16T03:18:21;13.25;;;8.55;;
28130;SDS011;15418;42.634;23.374;2022-10-16T03:20:47;16.40;;;8.57;;
28130;SDS011;15418;42.634;23.374;2022-10-16T03:23:12;13.43;;;9.45;;
28130;SDS011;15418;42.634;23.374;2022-10-16T03:25:37;18.27;;;10.00;;
28130;SDS011;15418;42.634;23.374;2022-10-16T03:28:03;14.63;;;9.27;;
28130;SDS011;15418;42.634;23.374;2022-10-16T03:30:29;14.90;;;8.85;;
28130;SDS011;15418;42.634;23.374;2022-10-16T03:32:54;14.75;;;9.57;;
28130;SDS011;15418;42.634;23.374;2022-10-16T03:35:20;18.35;;;9.88;;
28130;SDS011;15418;42.634;23.374;2022-10-16T03:37:47;14.27;;;9.10;;
28130;SDS011;15418;42.634;23.374;2022-10-16T03:40:12;13.80;;;8.90;;
28130;SDS011;15418;42.634;23.374;2022-10-16T03:42:38;18.02;;;9.55;;
28130;SDS011;15418;42.634;23.374;2022-10-16T03:45:03;17.35;;;9.77;;
28130;SDS011;15418;42.634;23.374;2022-10-16T03:47:29;16.23;;;9.50;;
28130;SDS011;15418;42.634;23.374;2022-10-16T03:49:55;15.32;;;9.45;;
28130;SDS011;15418;42.634;23.374;2022-10-16T03:52:21;17.92;;;9.13;;
28130;SDS011;15418;42.634;23.374;2022-10-16T03:54:46;14.60;;;9.43;;
28130;SDS011;15418;42.634;23.374;2022-10-16T03:57:12;17.63;;;10.00;;
28130;SDS011;15418;42.634;23.374;2022-10-16T03:59:37;17.45;;;9.57;;
28130;SDS011;15418;42.634;23.374;2022-10-16T04:02:02;20.75;;;10.23;;
28130;SDS011;15418;42.634;23.374;2022-10-16T04:04:28;22.90;;;11.20;;
28130;SDS011;15418;42.634;23.374;2022-10-16T04:06:53;19.10;;;12.43;;
28130;SDS011;15418;42.634;23.374;2022-10-16T04:09:19;22.10;;;12.38;;
28130;SDS011;15418;42.634;23.374;2022-10-16T04:11:44;22.25;;;11.77;;
28130;SDS011;15418;42.634;23.374;2022-10-16T04:14:10;21.92;;;11.77;;
28130;SDS011;15418;42.634;23.374;2022-10-16T04:16:35;17.95;;;12.25;;
28130;SDS011;15418;42.634;23.374;2022-10-16T04:19:00;22.88;;;12.80;;
28130;SDS011;15418;42.634;23.374;2022-10-16T04:21:26;19.23;;;11.63;;
28130;SDS011;15418;42.634;23.374;2022-10-16T04:23:51;16.30;;;12.05;;
28130;SDS011;15418;42.634;23.374;2022-10-16T04:26:17;17.55;;;12.23;;
28130;SDS011;15418;42.634;23.374;2022-10-16T04:28:42;17.95;;;11.13;;
28130;SDS011;15418;42.634;23.374;2022-10-16T04:31:08;20.88;;;10.85;;
28130;SDS011;15418;42.634;23.374;2022-10-16T04:33:33;15.70;;;10.90;;
28130;SDS011;15418;42.634;23.374;2022-10-16T04:35:59;15.40;;;10.30;;
28130;SDS011;15418;42.634;23.374;2022-10-16T04:38:26;16.95;;;10.18;;
28130;SDS011;15418;42.634;23.374;2022-10-16T04:40:51;17.40;;;10.73;;
28130;SDS011;15418;42.634;23.374;2022-10-16T04:43:17;18.92;;;11.60;;
28130;SDS011;15418;42.634;23.374;2022-10-16T04:45:43;22.52;;;11.07;;
28130;SDS011;15418;42.634;23.374;2022-10-16T04:48:09;16.92;;;11.23;;
28130;SDS011;15418;42.634;23.374;2022-10-16T04:50:34;15.60;;;9.32;;
28130;SDS011;15418;42.634;23.374;2022-10-16T04:53:00;16.85;;;10.63;;
28130;SDS011;15418;42.634;23.374;2022-10-16T04:55:25;14.52;;;9.38;;
28130;SDS011;15418;42.634;23.374;2022-10-16T04:57:51;15.45;;;10.38;;
28130;SDS011;15418;42.634;23.374;2022-10-16T05:00:16;16.55;;;9.38;;
28130;SDS011;15418;42.634;23.374;2022-10-16T05:02:42;19.08;;;10.35;;
28130;SDS011;15418;42.634;23.374;2022-10-16T05:05:07;18.10;;;9.75;;
28130;SDS011;15418;42.634;23.374;2022-10-16T05:07:33;13.63;;;9.13;;
28130;SDS011;15418;42.634;23.374;2022-10-16T05:09:58;16.40;;;9.50;;
28130;SDS011;15418;42.634;23.374;2022-10-16T05:12:23;16.40;;;10.25;;
28130;SDS011;15418;42.634;23.374;2022-10-16T05:14:49;18.30;;;9.50;;
28130;SDS011;15418;42.634;23.374;2022-10-16T05:17:14;14.15;;;9.45;;
28130;SDS011;15418;42.634;23.374;2022-10-16T05:19:40;17.90;;;9.77;;
28130;SDS011;15418;42.634;23.374;2022-10-16T05:22:05;16.45;;;9.73;;
28130;SDS011;15418;42.634;23.374;2022-10-16T05:24:30;22.55;;;9.48;;
28130;SDS011;15418;42.634;23.374;2022-10-16T05:26:56;16.77;;;9.35;;
28130;SDS011;15418;42.634;23.374;2022-10-16T05:29:22;15.77;;;8.93;;
28130;SDS011;15418;42.634;23.374;2022-10-16T05:31:49;16.30;;;9.60;;
28130;SDS011;15418;42.634;23.374;2022-10-16T05:34:18;17.15;;;9.50;;
28130;SDS011;15418;42.634;23.374;2022-10-16T05:36:45;16.25;;;9.23;;
28130;SDS011;15418;42.634;23.374;2022-10-16T05:39:11;15.57;;;9.40;;
28130;SDS011;15418;42.634;23.374;2022-10-16T05:41:38;15.88;;;10.10;;
28130;SDS011;15418;42.634;23.374;2022-10-16T05:44:04;13.73;;;8.85;;
28130;SDS011;15418;42.634;23.374;2022-10-16T05:46:30;15.27;;;9.10;;
28130;SDS011;15418;42.634;23.374;2022-10-16T05:48:56;14.60;;;9.13;;
28130;SDS011;15418;42.634;23.374;2022-10-16T05:51:21;14.77;;;9.02;;
28130;SDS011;15418;42.634;23.374;2022-10-16T05:53:47;11.20;;;7.68;;
28130;SDS011;15418;42.634;23.374;2022-10-16T05:56:12;15.88;;;8.57;;
28130;SDS011;15418;42.634;23.374;2022-10-16T05:58:38;14.35;;;8.60;;
28130;SDS011;15418;42.634;23.374;2022-10-16T06:01:18;11.18;;;8.13;;
28130;SDS011;15418;42.634;23.374;2022-10-16T06:03:45;14.10;;;8.32;;
28130;SDS011;15418;42.634;23.374;2022-10-16T06:06:12;14.95;;;8.40;;
28130;SDS011;15418;42.634;23.374;2022-10-16T06:08:48;13.90;;;8.55;;
28130;SDS011;15418;42.634;23.374;2022-10-16T06:11:18;12.50;;;7.82;;
28130;SDS011;15418;42.634;23.374;2022-10-16T06:13:51;14.82;;;9.88;;
28130;SDS011;15418;42.634;23.374;2022-10-16T06:16:26;11.27;;;8.90;;
28130;SDS011;15418;42.634;23.374;2022-10-16T06:18:52;14.40;;;9.32;;
28130;SDS011;15418;42.634;23.374;2022-10-16T06:21:23;15.68;;;9.98;;
28130;SDS011;15418;42.634;23.374;2022-10-16T06:23:52;15.23;;;8.60;;
28130;SDS011;15418;42.634;23.374;2022-10-16T06:26:20;69.65;;;38.15;;
28130;SDS011;15418;42.634;23.374;2022-10-16T06:28:47;19.58;;;9.40;;
28130;SDS011;15418;42.634;23.374;2022-10-16T06:31:12;16.25;;;8.20;;
28130;SDS011;15418;42.634;23.374;2022-10-16T06:33:38;16.48;;;8.27;;
28130;SDS011;15418;42.634;23.374;2022-10-16T06:36:06;12.40;;;8.60;;
28130;SDS011;15418;42.634;23.374;2022-10-16T06:38:33;12.52;;;8.25;;
28130;SDS011;15418;42.634;23.374;2022-10-16T06:40:59;17.80;;;8.50;;
28130;SDS011;15418;42.634;23.374;2022-10-16T06:43:25;12.43;;;8.80;;
28130;SDS011;15418;42.634;23.374;2022-10-16T06:45:55;15.50;;;9.32;;
28130;SDS011;15418;42.634;23.374;2022-10-16T06:48:21;14.80;;;8.65;;
28130;SDS011;15418;42.634;23.374;2022-10-16T06:50:55;10.88;;;8.05;;
28130;SDS011;15418;42.634;23.374;2022-10-16T06:53:21;12.20;;;7.78;;
28130;SDS011;15418;42.634;23.374;2022-10-16T06:55:47;14.60;;;8.57;;
28130;SDS011;15418;42.634;23.374;2022-10-16T06:58:12;19.27;;;9.40;;
28130;SDS011;15418;42.634;23.374;2022-10-16T07:00:37;16.27;;;10.02;;
28130;SDS011;15418;42.634;23.374;2022-10-16T07:03:03;19.63;;;9.98;;
28130;SDS011;15418;42.634;23.374;2022-10-16T07:05:28;21.00;;;11.57;;
28130;SDS011;15418;42.634;23.374;2022-10-16T07:07:53;16.80;;;11.10;;
28130;SDS011;15418;42.634;23.374;2022-10-16T07:10:19;25.60;;;13.40;;
28130;SDS011;15418;42.634;23.374;2022-10-16T07:12:44;19.58;;;10.27;;
28130;SDS011;15418;42.634;23.374;2022-10-16T07:15:10;17.00;;;11.07;;
28130;SDS011;15418;42.634;23.374;2022-10-16T07:17:35;18.55;;;10.55;;
28130;SDS011;15418;42.634;23.374;2022-10-16T07:20:01;16.35;;;9.77;;
28130;SDS011;15418;42.634;23.374;2022-10-16T07:22:28;21.90;;;9.88;;
28130;SDS011;15418;42.634;23.374;2022-10-16T07:24:53;18.92;;;11.68;;
28130;SDS011;15418;42.634;23.374;2022-10-16T07:27:19;24.45;;;10.40;;
28130;SDS011;15418;42.634;23.374;2022-10-16T07:29:47;21.23;;;10.10;;
28130;SDS011;15418;42.634;23.374;2022-10-16T07:32:12;19.92;;;9.82;;
28130;SDS011;15418;42.634;23.374;2022-10-16T07:34:38;21.75;;;10.10;;
28130;SDS011;15418;42.634;23.374;2022-10-16T07:37:03;19.92;;;9.88;;
28130;SDS011;15418;42.634;23.374;2022-10-16T07:39:28;26.67;;;13.52;;
28130;SDS011;15418;42.634;23.374;2022-10-16T07:41:54;24.05;;;11.60;;
28130;SDS011;15418;42.634;23.374;2022-10-16T07:44:19;24.65;;;9.70;;
28130;SDS011;15418;42.634;23.374;2022-10-16T07:46:45;21.35;;;10.38;;
28130;SDS011;15418;42.634;23.374;2022-10-16T07:49:11;22.10;;;10.45;;
28130;SDS011;15418;42.634;23.374;2022-10-16T07:51:36;22.90;;;11.50;;
28130;SDS011;15418;42.634;23.374;2022-10-16T07:54:03;23.42;;;11.43;;
28130;SDS011;15418;42.634;23.374;2022-10-16T07:56:30;27.00;;;11.05;;
28130;SDS011;15418;42.634;23.374;2022-10-16T07:58:55;29.42;;;11.85;;
28130;SDS011;15418;42.634;23.374;2022-10-16T08:01:21;22.38;;;9.90;;
28130;SDS011;15418;42.634;23.374;2022-10-16T08:03:47;21.25;;;9.55;;
28130;SDS011;15418;42.634;23.374;2022-10-16T08:06:15;18.83;;;10.40;;
28130;SDS011;15418;42.634;23.374;2022-10-16T08:08:41;20.35;;;8.73;;
28130;SDS011;15418;42.634;23.374;2022-10-16T08:11:06;19.42;;;9.40;;
28130;SDS011;15418;42.634;23.374;2022-10-16T08:13:33;17.75;;;9.00;;
28130;SDS011;15418;42.634;23.374;2022-10-16T08:15:58;16.25;;;8.18;;
28130;SDS011;15418;42.634;23.374;2022-10-16T08:18:24;15.88;;;8.45;;
28130;SDS011;15418;42.634;23.374;2022-10-16T08:20:59;19.25;;;8.57;;
28130;SDS011;15418;42.634;23.374;2022-10-16T08:23:25;14.27;;;8.18;;
28130;SDS011;15418;42.634;23.374;2022-10-16T08:25:52;15.25;;;7.32;;
28130;SDS011;15418;42.634;23.374;2022-10-16T08:28:18;13.15;;;7.40;;
28130;SDS011;15418;42.634;23.374;2022-10-16T08:30:44;11.07;;;7.80;;
28130;SDS011;15418;42.634;23.374;2022-10-16T08:33:10;14.82;;;7.65;;
28130;SDS011;15418;42.634;23.374;2022-10-16T08:35:35;10.40;;;7.43;;
28130;SDS011;15418;42.634;23.374;2022-10-16T08:38:02;10.65;;;6.30;;
28130;SDS011;15418;42.634;23.374;2022-10-16T08:40:29;12.77;;;7.15;;
28130;SDS011;15418;42.634;23.374;2022-10-16T08:51:01;6.88;;;4.70;;
28130;SDS011;15418;42.634;23.374;2022-10-16T08:56:18;11.80;;;5.80;;
28130;SDS011;15418;42.634;23.374;2022-10-16T08:58:44;11.90;;;5.80;;
28130;SDS011;15418;42.634;23.374;2022-10-16T09:01:13;7.00;;;4.97;;
28130;SDS011;15418;42.634;23.374;2022-10-16T09:03:53;8.60;;;4.47;;
28130;SDS011;15418;42.634;23.374;2022-10-16T09:06:39;11.27;;;4.95;;
28130;SDS011;15418;42.634;23.374;2022-10-16T09:09:20;5.53;;;4.20;;
28130;SDS011;15418;42.634;23.374;2022-10-16T09:23:16;19.02;;;7.68;;
28130;SDS011;15418;42.634;23.374;2022-10-16T09:25:53;6.93;;;4.45;;
28130;SDS011;15418;42.634;23.374;2022-10-16T09:28:20;8.20;;;5.00;;
28130;SDS011;15418;42.634;23.374;2022-10-16T09:30:46;12.40;;;5.22;;
28130;SDS011;15418;42.634;23.374;2022-10-16T09:33:14;5.90;;;4.10;;
28130;SDS011;15418;42.634;23.374;2022-10-16T09:38:30;7.55;;;4.40;;
28130;SDS011;15418;42.634;23.374;2022-10-16T09:41:02;9.98;;;4.90;;
28130;SDS011;15418;42.634;23.374;2022-10-16T09:48:48;6.25;;;4.22;;
28130;SDS011;15418;42.634;23.374;2022-10-16T09:51:20;9.57;;;4.20;;
28130;SDS011;15418;42.634;23.374;2022-10-16T09:53:49;9.20;;;4.72;;
28130;SDS011;15418;42.634;23.374;2022-10-16T09:56:24;5.30;;;3.83;;
28130;SDS011;15418;42.634;23.374;2022-10-16T09:58:53;22.95;;;5.38;;
28130;SDS011;15418;42.634;23.374;2022-10-16T10:01:20;7.03;;;4.47;;
28130;SDS011;15418;42.634;23.374;2022-10-16T10:03:48;6.85;;;3.88;;
28130;SDS011;15418;42.634;23.374;2022-10-16T10:06:18;10.85;;;4.68;;
28130;SDS011;15418;42.634;23.374;2022-10-16T10:08:54;10.05;;;5.20;;
28130;SDS011;15418;42.634;23.374;2022-10-16T10:14:30;7.95;;;4.43;;
28130;SDS011;15418;42.634;23.374;2022-10-16T10:17:11;8.75;;;4.78;;
28130;SDS011;15418;42.634;23.374;2022-10-16T10:20:00;6.38;;;4.50;;
28130;SDS011;15418;42.634;23.374;2022-10-16T10:30:41;15.52;;;5.55;;
28130;SDS011;15418;42.634;23.374;2022-10-16T10:33:16;10.38;;;5.20;;
28130;SDS011;15418;42.634;23.374;2022-10-16T10:36:12;13.40;;;4.95;;
28130;SDS011;15418;42.634;23.374;2022-10-16T10:41:59;16.92;;;5.20;;
28130;SDS011;15418;42.634;23.374;2022-10-16T10:47:27;11.82;;;5.38;;
28130;SDS011;15418;42.634;23.374;2022-10-16T10:55:49;5.47;;;3.47;;
28130;SDS011;15418;42.634;23.374;2022-10-16T10:58:29;9.38;;;4.90;;
28130;SDS011;15418;42.634;23.374;2022-10-16T11:04:19;10.80;;;4.65;;
28130;SDS011;15418;42.634;23.374;2022-10-16T11:07:07;9.35;;;4.10;;
28130;SDS011;15418;42.634;23.374;2022-10-16T11:09:38;8.85;;;4.57;;
28130;SDS011;15418;42.634;23.374;2022-10-16T11:12:14;8.30;;;3.28;;
28130;SDS011;15418;42.634;23.374;2022-10-16T11:17:35;6.03;;;2.85;;
28130;SDS011;15418;42.634;23.374;2022-10-16T11:22:58;8.95;;;3.60;;
28130;SDS011;15418;42.634;23.374;2022-10-16T11:25:32;3.10;;;2.55;;
28130;SDS011;15418;42.634;23.374;2022-10-16T11:28:11;4.70;;;3.35;;
28130;SDS011;15418;42.634;23.374;2022-10-16T11:38:48;4.13;;;2.90;;
28130;SDS011;15418;42.634;23.374;2022-10-16T11:41:21;6.75;;;3.20;;
28130;SDS011;15418;42.634;23.374;2022-10-16T11:47:05;8.23;;;3.92;;
28130;SDS011;15418;42.634;23.374;2022-10-16T11:49:39;6.25;;;3.78;;
28130;SDS011;15418;42.634;23.374;2022-10-16T11:52:13;10.65;;;5.55;;
28130;SDS011;15418;42.634;23.374;2022-10-16T11:55:13;3.97;;;2.53;;
28130;SDS011;15418;42.634;23.374;2022-10-16T11:57:44;4.40;;;2.90;;
28130;SDS011;15418;42.634;23.374;2022-10-16T12:00:28;5.35;;;3.25;;
28130;SDS011;15418;42.634;23.374;2022-10-16T12:05:50;9.90;;;3.38;;
28130;SDS011;15418;42.634;23.374;2022-10-16T12:08:20;6.53;;;3.50;;
28130;SDS011;15418;42.634;23.374;2022-10-16T12:10:46;8.00;;;3.45;;
28130;SDS011;15418;42.634;23.374;2022-10-16T12:16:08;5.10;;;3.33;;
28130;SDS011;15418;42.634;23.374;2022-10-16T12:18:46;7.30;;;3.65;;
28130;SDS011;15418;42.634;23.374;2022-10-16T12:21:14;7.05;;;3.10;;
28130;SDS011;15418;42.634;23.374;2022-10-16T12:23:51;8.77;;;3.03;;
28130;SDS011;15418;42.634;23.374;2022-10-16T12:28:50;9.45;;;5.72;;
28130;SDS011;15418;42.634;23.374;2022-10-16T12:31:16;5.28;;;3.30;;
28130;SDS011;15418;42.634;23.374;2022-10-16T12:34:03;4.22;;;2.70;;
28130;SDS011;15418;42.634;23.374;2022-10-16T12:38:58;5.05;;;3.28;;
28130;SDS011;15418;42.634;23.374;2022-10-16T12:41:32;8.75;;;3.30;;
28130;SDS011;15418;42.634;23.374;2022-10-16T12:44:00;4.90;;;2.60;;
28130;SDS011;15418;42.634;23.374;2022-10-16T12:51:46;4.97;;;3.13;;
28130;SDS011;15418;42.634;23.374;2022-10-16T12:54:12;5.03;;;3.05;;
28130;SDS011;15418;42.634;23.374;2022-10-16T12:59:11;10.15;;;3.03;;
28130;SDS011;15418;42.634;23.374;2022-10-16T13:10:00;5.20;;;2.70;;
28130;SDS011;15418;42.634;23.374;2022-10-16T13:12:43;8.18;;;3.58;;
28130;SDS011;15418;42.634;23.374;2022-10-16T13:15:16;10.57;;;2.70;;
28130;SDS011;15418;42.634;23.374;2022-10-16T13:26:08;5.70;;;3.30;;
28130;SDS011;15418;42.634;23.374;2022-10-16T13:28:46;5.80;;;3.20;;
28130;SDS011;15418;42.634;23.374;2022-10-16T13:31:21;6.80;;;2.75;;
28130;SDS011;15418;42.634;23.374;2022-10-16T13:33:50;5.20;;;3.50;;
28130;SDS011;15418;42.634;23.374;2022-10-16T13:36:24;6.63;;;3.78;;
28130;SDS011;15418;42.634;23.374;2022-10-16T13:41:39;6.18;;;3.60;;
28130;SDS011;15418;42.634;23.374;2022-10-16T13:44:10;6.70;;;3.80;;
28130;SDS011;15418;42.634;23.374;2022-10-16T13:46:40;5.18;;;3.35;;
28130;SDS011;15418;42.634;23.374;2022-10-16T13:49:11;4.97;;;2.53;;
28130;SDS011;15418;42.634;23.374;2022-10-16T13:51:41;8.98;;;3.90;;
28130;SDS011;15418;42.634;23.374;2022-10-16T13:54:19;4.28;;;2.80;;
28130;SDS011;15418;42.634;23.374;2022-10-16T13:56:45;6.30;;;3.42;;
28130;SDS011;15418;42.634;23.374;2022-10-16T13:59:26;7.65;;;3.97;;
28130;SDS011;15418;42.634;23.374;2022-10-16T14:01:58;10.25;;;2.88;;
28130;SDS011;15418;42.634;23.374;2022-10-16T14:04:31;6.57;;;3.30;;
28130;SDS011;15418;42.634;23.374;2022-10-16T14:06:58;7.38;;;3.60;;
28130;SDS011;15418;42.634;23.374;2022-10-16T14:11:54;6.25;;;3.33;;
28130;SDS011;15418;42.634;23.374;2022-10-16T14:14:23;8.05;;;3.60;;
28130;SDS011;15418;42.634;23.374;2022-10-16T14:16:50;5.05;;;3.15;;
28130;SDS011;15418;42.634;23.374;2022-10-16T14:19:20;5.57;;;3.55;;
28130;SDS011;15418;42.634;23.374;2022-10-16T14:21:49;5.57;;;3.22;;
28130;SDS011;15418;42.634;23.374;2022-10-16T14:24:49;6.20;;;3.72;;
28130;SDS011;15418;42.634;23.374;2022-10-16T14:27:28;6.40;;;3.10;;
28130;SDS011;15418;42.634;23.374;2022-10-16T14:32:53;15.75;;;3.80;;
28130;SDS011;15418;42.634;23.374;2022-10-16T14:35:28;8.50;;;3.10;;
28130;SDS011;15418;42.634;23.374;2022-10-16T14:38:01;6.90;;;3.08;;
28130;SDS011;15418;42.634;23.374;2022-10-16T14:40:29;5.65;;;3.13;;
28130;SDS011;15418;42.634;23.374;2022-10-16T14:42:57;8.25;;;3.67;;
28130;SDS011;15418;42.634;23.374;2022-10-16T14:45:24;11.38;;;3.28;;
28130;SDS011;15418;42.634;23.374;2022-10-16T14:47:54;9.60;;;3.40;;
28130;SDS011;15418;42.634;23.374;2022-10-16T14:50:22;4.60;;;3.10;;
28130;SDS011;15418;42.634;23.374;2022-10-16T14:52:48;6.05;;;3.15;;
28130;SDS011;15418;42.634;23.374;2022-10-16T14:55:14;7.32;;;3.35;;
28130;SDS011;15418;42.634;23.374;2022-10-16T14:57:40;6.18;;;3.22;;
28130;SDS011;15418;42.634;23.374;2022-10-16T15:00:13;8.38;;;3.00;;
28130;SDS011;15418;42.634;23.374;2022-10-16T15:02:41;4.18;;;2.72;;
28130;SDS011;15418;42.634;23.374;2022-10-16T15:05:18;10.55;;;3.40;;
28130;SDS011;15418;42.634;23.374;2022-10-16T15:07:50;7.97;;;2.92;;
28130;SDS011;15418;42.634;23.374;2022-10-16T15:10:18;6.95;;;3.42;;
28130;SDS011;15418;42.634;23.374;2022-10-16T15:12:44;7.85;;;3.95;;
28130;SDS011;15418;42.634;23.374;2022-10-16T15:17:47;7.90;;;3.75;;
28130;SDS011;15418;42.634;23.374;2022-10-16T15:20:14;5.00;;;3.28;;
28130;SDS011;15418;42.634;23.374;2022-10-16T15:22:39;6.78;;;3.65;;
28130;SDS011;15418;42.634;23.374;2022-10-16T15:28:07;10.98;;;4.07;;
28130;SDS011;15418;42.634;23.374;2022-10-16T15:30:34;12.93;;;4.93;;
28130;SDS011;15418;42.634;23.374;2022-10-16T15:33:01;12.23;;;7.90;;
28130;SDS011;15418;42.634;23.374;2022-10-16T15:35:28;9.00;;;3.58;;
28130;SDS011;15418;42.634;23.374;2022-10-16T15:37:53;6.88;;;4.35;;
28130;SDS011;15418;42.634;23.374;2022-10-16T15:40:20;13.85;;;4.07;;
28130;SDS011;15418;42.634;23.374;2022-10-16T15:42:46;10.35;;;3.88;;
28130;SDS011;15418;42.634;23.374;2022-10-16T15:45:12;8.07;;;3.67;;
28130;SDS011;15418;42.634;23.374;2022-10-16T15:47:38;11.20;;;5.15;;
28130;SDS011;15418;42.634;23.374;2022-10-16T15:50:04;17.67;;;4.45;;
28130;SDS011;15418;42.634;23.374;2022-10-16T15:52:30;14.38;;;5.40;;
28130;SDS011;15418;42.634;23.374;2022-10-16T15:54:57;28.20;;;7.00;;
28130;SDS011;15418;42.634;23.374;2022-10-16T15:57:22;19.83;;;6.00;;
28130;SDS011;15418;42.634;23.374;2022-10-16T15:59:49;19.10;;;5.10;;
28130;SDS011;15418;42.634;23.374;2022-10-16T16:02:15;21.77;;;7.43;;
28130;SDS011;15418;42.634;23.374;2022-10-16T16:04:40;15.27;;;6.30;;
28130;SDS011;15418;42.634;23.374;2022-10-16T16:07:05;24.00;;;8.07;;
28130;SDS011;15418;42.634;23.374;2022-10-16T16:09:32;27.90;;;11.00;;
28130;SDS011;15418;42.634;23.374;2022-10-16T16:11:58;33.92;;;13.85;;
28130;SDS011;15418;42.634;23.374;2022-10-16T16:14:25;34.80;;;16.48;;
28130;SDS011;15418;42.634;23.374;2022-10-16T16:16:53;33.00;;;14.68;;
28130;SDS011;15418;42.634;23.374;2022-10-16T16:19:19;31.42;;;16.25;;
28130;SDS011;15418;42.634;23.374;2022-10-16T16:21:46;32.30;;;14.40;;
28130;SDS011;15418;42.634;23.374;2022-10-16T16:24:12;26.90;;;12.57;;
28130;SDS011;15418;42.634;23.374;2022-10-16T16:26:37;23.23;;;11.63;;
28130;SDS011;15418;42.634;23.374;2022-10-16T16:29:05;37.35;;;11.00;;
28130;SDS011;15418;42.634;23.374;2022-10-16T16:31:31;26.83;;;11.18;;
28130;SDS011;15418;42.634;23.374;2022-10-16T16:33:57;21.42;;;10.77;;
28130;SDS011;15418;42.634;23.374;2022-10-16T16:36:24;24.27;;;9.02;;
28130;SDS011;15418;42.634;23.374;2022-10-16T16:38:50;25.77;;;9.75;;
28130;SDS011;15418;42.634;23.374;2022-10-16T16:41:26;23.73;;;8.48;;
28130;SDS011;15418;42.634;23.374;2022-10-16T16:43:53;20.17;;;9.43;;
28130;SDS011;15418;42.634;23.374;2022-10-16T16:46:19;24.55;;;10.05;;
28130;SDS011;15418;42.634;23.374;2022-10-16T16:48:46;23.83;;;9.40;;
28130;SDS011;15418;42.634;23.374;2022-10-16T16:51:12;20.40;;;9.15;;
28130;SDS011;15418;42.634;23.374;2022-10-16T16:53:45;22.20;;;9.23;;
28130;SDS011;15418;42.634;23.374;2022-10-16T16:56:12;20.90;;;10.63;;
28130;SDS011;15418;42.634;23.374;2022-10-16T16:58:38;19.00;;;9.05;;